sensor_id;sensor_type;location;lat;lon;timestamp;P1;durP1;ratioP1;P2;durP2;ratioP2
26690;SDS011;14307;51.718;8.938;2024-03-23T00:55:10;24.80;;;10.30;;
26690;SDS011;14307;51.718;8.938;2024-03-23T00:57:38;25.88;;;10.32;;
26690;SDS011;14307;51.718;8.938;2024-03-23T01:00:04;21.15;;;8.52;;
26690;SDS011;14307;51.718;8.938;2024-03-23T01:02:32;17.45;;;7.95;;
26690;SDS011;14307;51.718;8.938;2024-03-23T01:04:58;22.02;;;8.73;;
26690;SDS011;14307;51.718;8.938;2024-03-23T01:07:24;20.75;;;7.03;;
26690;SDS011;14307;51.718;8.938;2024-03-23T01:09:50;19.45;;;7.68;;
26690;SDS011;14307;51.718;8.938;2024-03-23T01:12:18;19.25;;;7.63;;
26690;SDS011;14307;51.718;8.938;2024-03-23T01:14:44;20.70;;;7.65;;
26690;SDS011;14307;51.718;8.938;2024-03-23T01:17:10;23.52;;;9.52;;
26690;SDS011;14307;51.718;8.938;2024-03-23T01:19:37;16.90;;;8.02;;
26690;SDS011;14307;51.718;8.938;2024-03-23T01:22:04;20.02;;;6.90;;
26690;SDS011;14307;51.718;8.938;2024-03-23T01:24:30;20.20;;;7.40;;
26690;SDS011;14307;51.718;8.938;2024-03-23T01:26:57;19.05;;;8.50;;
26690;SDS011;14307;51.718;8.938;2024-03-23T01:29:24;25.60;;;9.68;;
26690;SDS011;14307;51.718;8.938;2024-03-23T01:31:50;20.58;;;8.80;;
26690;SDS011;14307;51.718;8.938;2024-03-23T01:34:17;19.90;;;9.55;;
26690;SDS011;14307;51.718;8.938;2024-03-23T01:36:43;25.65;;;9.88;;
26690;SDS011;14307;51.718;8.938;2024-03-23T01:39:09;20.48;;;9.57;;
26690;SDS011;14307;51.718;8.938;2024-03-23T01:41:35;25.33;;;10.15;;
26690;SDS011;14307;51.718;8.938;2024-03-23T01:44:04;29.98;;;8.82;;
26690;SDS011;14307;51.718;8.938;2024-03-23T01:46:33;32.03;;;10.57;;
26690;SDS011;14307;51.718;8.938;2024-03-23T01:49:00;25.25;;;9.13;;
26690;SDS011;14307;51.718;8.938;2024-03-23T01:51:27;31.70;;;10.90;;
26690;SDS011;14307;51.718;8.938;2024-03-23T01:53:54;22.42;;;8.38;;
26690;SDS011;14307;51.718;8.938;2024-03-23T01:56:21;25.50;;;9.63;;
26690;SDS011;14307;51.718;8.938;2024-03-23T01:58:48;27.50;;;9.15;;
26690;SDS011;14307;51.718;8.938;2024-03-23T02:01:14;22.38;;;8.85;;
26690;SDS011;14307;51.718;8.938;2024-03-23T02:03:40;20.08;;;8.65;;
26690;SDS011;14307;51.718;8.938;2024-03-23T02:06:06;24.85;;;7.63;;
26690;SDS011;14307;51.718;8.938;2024-03-23T02:08:34;20.52;;;7.45;;
26690;SDS011;14307;51.718;8.938;2024-03-23T02:11:01;21.27;;;8.75;;
26690;SDS011;14307;51.718;8.938;2024-03-23T02:13:27;18.35;;;7.70;;
26690;SDS011;14307;51.718;8.938;2024-03-23T02:15:53;20.80;;;8.40;;
26690;SDS011;14307;51.718;8.938;2024-03-23T02:18:20;26.83;;;7.50;;
26690;SDS011;14307;51.718;8.938;2024-03-23T02:20:46;26.70;;;8.48;;
26690;SDS011;14307;51.718;8.938;2024-03-23T02:23:15;31.95;;;8.32;;
26690;SDS011;14307;51.718;8.938;2024-03-23T02:25:44;25.70;;;8.55;;
26690;SDS011;14307;51.718;8.938;2024-03-23T02:28:10;27.80;;;9.20;;
26690;SDS011;14307;51.718;8.938;2024-03-23T02:30:37;21.33;;;8.95;;
26690;SDS011;14307;51.718;8.938;2024-03-23T02:33:03;34.83;;;10.70;;
26690;SDS011;14307;51.718;8.938;2024-03-23T02:35:30;30.08;;;10.30;;
26690;SDS011;14307;51.718;8.938;2024-03-23T02:37:56;34.30;;;10.48;;
26690;SDS011;14307;51.718;8.938;2024-03-23T02:40:23;31.42;;;10.27;;
26690;SDS011;14307;51.718;8.938;2024-03-23T02:42:50;38.00;;;10.88;;
26690;SDS011;14307;51.718;8.938;2024-03-23T02:45:16;34.08;;;10.50;;
26690;SDS011;14307;51.718;8.938;2024-03-23T02:47:42;32.47;;;10.60;;
26690;SDS011;14307;51.718;8.938;2024-03-23T02:50:08;28.38;;;10.32;;
26690;SDS011;14307;51.718;8.938;2024-03-23T02:52:35;28.23;;;10.93;;
26690;SDS011;14307;51.718;8.938;2024-03-23T02:55:02;33.47;;;10.77;;
26690;SDS011;14307;51.718;8.938;2024-03-23T02:57:29;30.15;;;10.80;;
26690;SDS011;14307;51.718;8.938;2024-03-23T02:59:55;31.25;;;10.27;;
26690;SDS011;14307;51.718;8.938;2024-03-23T03:02:21;38.03;;;11.27;;
26690;SDS011;14307;51.718;8.938;2024-03-23T03:04:47;26.27;;;9.02;;
26690;SDS011;14307;51.718;8.938;2024-03-23T03:07:14;22.02;;;7.45;;
26690;SDS011;14307;51.718;8.938;2024-03-23T03:09:40;20.00;;;7.63;;
26690;SDS011;14307;51.718;8.938;2024-03-23T03:12:06;20.92;;;7.30;;
26690;SDS011;14307;51.718;8.938;2024-03-23T03:14:33;19.20;;;5.93;;
26690;SDS011;14307;51.718;8.938;2024-03-23T03:16:59;13.32;;;6.30;;
26690;SDS011;14307;51.718;8.938;2024-03-23T03:19:26;21.83;;;7.72;;
26690;SDS011;14307;51.718;8.938;2024-03-23T03:21:53;25.17;;;8.55;;
26690;SDS011;14307;51.718;8.938;2024-03-23T03:24:19;20.98;;;7.90;;
26690;SDS011;14307;51.718;8.938;2024-03-23T03:26:45;21.45;;;8.07;;
26690;SDS011;14307;51.718;8.938;2024-03-23T03:29:11;19.98;;;8.15;;
26690;SDS011;14307;51.718;8.938;2024-03-23T03:31:38;27.65;;;7.32;;
26690;SDS011;14307;51.718;8.938;2024-03-23T03:34:05;19.42;;;8.52;;
26690;SDS011;14307;51.718;8.938;2024-03-23T03:36:31;10.25;;;5.93;;
26690;SDS011;14307;51.718;8.938;2024-03-23T03:38:57;18.33;;;5.75;;
26690;SDS011;14307;51.718;8.938;2024-03-23T03:41:23;15.20;;;5.93;;
26690;SDS011;14307;51.718;8.938;2024-03-23T03:43:49;16.33;;;6.07;;
26690;SDS011;14307;51.718;8.938;2024-03-23T03:46:15;11.95;;;5.70;;
26690;SDS011;14307;51.718;8.938;2024-03-23T03:48:42;8.20;;;5.03;;
26690;SDS011;14307;51.718;8.938;2024-03-23T03:51:10;11.25;;;4.82;;
26690;SDS011;14307;51.718;8.938;2024-03-23T03:53:36;13.93;;;6.03;;
26690;SDS011;14307;51.718;8.938;2024-03-23T03:56:02;7.78;;;5.40;;
26690;SDS011;14307;51.718;8.938;2024-03-23T03:58:32;14.05;;;5.68;;
26690;SDS011;14307;51.718;8.938;2024-03-23T04:00:58;14.15;;;5.30;;
26690;SDS011;14307;51.718;8.938;2024-03-23T04:03:24;16.15;;;5.70;;
26690;SDS011;14307;51.718;8.938;2024-03-23T04:05:53;15.93;;;6.32;;
26690;SDS011;14307;51.718;8.938;2024-03-23T04:08:20;15.13;;;6.00;;
26690;SDS011;14307;51.718;8.938;2024-03-23T04:10:46;14.93;;;5.90;;
26690;SDS011;14307;51.718;8.938;2024-03-23T04:13:13;16.17;;;6.47;;
26690;SDS011;14307;51.718;8.938;2024-03-23T04:15:39;16.98;;;5.47;;
26690;SDS011;14307;51.718;8.938;2024-03-23T04:18:06;15.48;;;6.20;;
26690;SDS011;14307;51.718;8.938;2024-03-23T04:20:32;19.77;;;6.43;;
26690;SDS011;14307;51.718;8.938;2024-03-23T04:22:58;13.32;;;6.03;;
26690;SDS011;14307;51.718;8.938;2024-03-23T04:25:25;15.55;;;7.32;;
26690;SDS011;14307;51.718;8.938;2024-03-23T04:27:51;18.17;;;7.57;;
26690;SDS011;14307;51.718;8.938;2024-03-23T04:30:17;14.50;;;6.10;;
26690;SDS011;14307;51.718;8.938;2024-03-23T04:32:44;16.20;;;6.65;;
26690;SDS011;14307;51.718;8.938;2024-03-23T04:35:10;17.17;;;6.05;;
26690;SDS011;14307;51.718;8.938;2024-03-23T04:37:37;24.90;;;8.70;;
26690;SDS011;14307;51.718;8.938;2024-03-23T04:40:03;22.92;;;7.00;;
26690;SDS011;14307;51.718;8.938;2024-03-23T04:42:30;22.42;;;7.03;;
26690;SDS011;14307;51.718;8.938;2024-03-23T04:44:57;21.38;;;7.20;;
26690;SDS011;14307;51.718;8.938;2024-03-23T04:47:24;18.73;;;7.10;;
26690;SDS011;14307;51.718;8.938;2024-03-23T04:49:51;21.73;;;6.78;;
26690;SDS011;14307;51.718;8.938;2024-03-23T04:52:17;24.98;;;8.10;;
26690;SDS011;14307;51.718;8.938;2024-03-23T04:54:44;17.90;;;5.93;;
26690;SDS011;14307;51.718;8.938;2024-03-23T04:57:11;22.50;;;6.53;;
26690;SDS011;14307;51.718;8.938;2024-03-23T04:59:37;15.85;;;4.60;;
26690;SDS011;14307;51.718;8.938;2024-03-23T05:02:03;19.48;;;5.13;;
26690;SDS011;14307;51.718;8.938;2024-03-23T05:04:30;12.50;;;4.80;;
26690;SDS011;14307;51.718;8.938;2024-03-23T05:06:57;12.98;;;4.20;;
26690;SDS011;14307;51.718;8.938;2024-03-23T05:09:23;15.73;;;4.32;;
26690;SDS011;14307;51.718;8.938;2024-03-23T05:11:50;8.25;;;3.50;;
26690;SDS011;14307;51.718;8.938;2024-03-23T05:14:16;6.15;;;2.90;;
26690;SDS011;14307;51.718;8.938;2024-03-23T05:16:42;8.60;;;3.38;;
26690;SDS011;14307;51.718;8.938;2024-03-23T05:19:08;12.15;;;3.97;;
26690;SDS011;14307;51.718;8.938;2024-03-23T05:21:34;9.43;;;4.13;;
26690;SDS011;14307;51.718;8.938;2024-03-23T05:24:00;16.75;;;5.18;;
26690;SDS011;14307;51.718;8.938;2024-03-23T05:26:28;12.30;;;4.40;;
26690;SDS011;14307;51.718;8.938;2024-03-23T05:28:54;14.82;;;5.45;;
26690;SDS011;14307;51.718;8.938;2024-03-23T05:31:27;13.07;;;4.47;;
26690;SDS011;14307;51.718;8.938;2024-03-23T05:33:55;18.67;;;4.97;;
26690;SDS011;14307;51.718;8.938;2024-03-23T05:36:21;11.90;;;4.40;;
26690;SDS011;14307;51.718;8.938;2024-03-23T05:38:47;15.23;;;4.78;;
26690;SDS011;14307;51.718;8.938;2024-03-23T05:41:13;19.15;;;5.32;;
26690;SDS011;14307;51.718;8.938;2024-03-23T05:43:40;14.95;;;5.68;;
26690;SDS011;14307;51.718;8.938;2024-03-23T05:46:06;23.95;;;5.03;;
26690;SDS011;14307;51.718;8.938;2024-03-23T05:48:33;21.95;;;5.55;;
26690;SDS011;14307;51.718;8.938;2024-03-23T05:50:59;21.83;;;4.60;;
26690;SDS011;14307;51.718;8.938;2024-03-23T05:53:27;13.65;;;4.28;;
26690;SDS011;14307;51.718;8.938;2024-03-23T05:56:02;14.52;;;5.00;;
26690;SDS011;14307;51.718;8.938;2024-03-23T05:58:29;18.63;;;5.97;;
26690;SDS011;14307;51.718;8.938;2024-03-23T06:01:00;15.65;;;5.40;;
26690;SDS011;14307;51.718;8.938;2024-03-23T06:03:28;18.83;;;6.55;;
26690;SDS011;14307;51.718;8.938;2024-03-23T06:05:54;16.42;;;5.82;;
26690;SDS011;14307;51.718;8.938;2024-03-23T06:08:21;15.45;;;4.85;;
26690;SDS011;14307;51.718;8.938;2024-03-23T06:10:48;16.63;;;6.68;;
26690;SDS011;14307;51.718;8.938;2024-03-23T06:13:15;13.55;;;6.00;;
26690;SDS011;14307;51.718;8.938;2024-03-23T06:15:42;21.33;;;5.30;;
26690;SDS011;14307;51.718;8.938;2024-03-23T06:18:09;16.33;;;5.13;;
26690;SDS011;14307;51.718;8.938;2024-03-23T06:20:35;17.77;;;5.40;;
26690;SDS011;14307;51.718;8.938;2024-03-23T06:23:01;16.67;;;5.53;;
26690;SDS011;14307;51.718;8.938;2024-03-23T06:25:29;18.30;;;6.63;;
26690;SDS011;14307;51.718;8.938;2024-03-23T06:27:55;16.60;;;5.95;;
26690;SDS011;14307;51.718;8.938;2024-03-23T06:30:21;17.83;;;6.38;;
26690;SDS011;14307;51.718;8.938;2024-03-23T06:32:47;16.10;;;5.97;;
26690;SDS011;14307;51.718;8.938;2024-03-23T06:35:13;21.95;;;7.30;;
26690;SDS011;14307;51.718;8.938;2024-03-23T06:37:39;25.55;;;8.27;;
26690;SDS011;14307;51.718;8.938;2024-03-23T06:40:07;12.50;;;5.38;;
26690;SDS011;14307;51.718;8.938;2024-03-23T06:42:35;19.23;;;5.18;;
26690;SDS011;14307;51.718;8.938;2024-03-23T06:45:02;15.43;;;5.72;;
26690;SDS011;14307;51.718;8.938;2024-03-23T06:47:30;23.48;;;8.05;;
26690;SDS011;14307;51.718;8.938;2024-03-23T06:49:56;18.63;;;5.95;;
26690;SDS011;14307;51.718;8.938;2024-03-23T06:52:22;13.50;;;5.45;;
26690;SDS011;14307;51.718;8.938;2024-03-23T06:54:48;18.60;;;5.05;;
26690;SDS011;14307;51.718;8.938;2024-03-23T06:57:15;31.58;;;6.50;;
26690;SDS011;14307;51.718;8.938;2024-03-23T06:59:41;18.77;;;6.28;;
26690;SDS011;14307;51.718;8.938;2024-03-23T07:02:08;13.80;;;4.65;;
26690;SDS011;14307;51.718;8.938;2024-03-23T07:04:35;13.30;;;5.30;;
26690;SDS011;14307;51.718;8.938;2024-03-23T07:07:02;18.38;;;5.53;;
26690;SDS011;14307;51.718;8.938;2024-03-23T07:09:28;21.65;;;5.93;;
26690;SDS011;14307;51.718;8.938;2024-03-23T07:11:55;22.60;;;6.03;;
26690;SDS011;14307;51.718;8.938;2024-03-23T07:14:22;18.40;;;6.60;;
26690;SDS011;14307;51.718;8.938;2024-03-23T07:16:49;16.48;;;5.43;;
26690;SDS011;14307;51.718;8.938;2024-03-23T07:19:15;15.48;;;6.20;;
26690;SDS011;14307;51.718;8.938;2024-03-23T07:21:42;20.92;;;6.68;;
26690;SDS011;14307;51.718;8.938;2024-03-23T07:24:09;21.00;;;6.95;;
26690;SDS011;14307;51.718;8.938;2024-03-23T07:26:35;22.30;;;7.53;;
26690;SDS011;14307;51.718;8.938;2024-03-23T07:29:01;23.95;;;7.93;;
26690;SDS011;14307;51.718;8.938;2024-03-23T07:31:27;21.25;;;7.72;;
26690;SDS011;14307;51.718;8.938;2024-03-23T07:33:54;21.67;;;8.40;;
26690;SDS011;14307;51.718;8.938;2024-03-23T07:36:20;29.67;;;9.15;;
26690;SDS011;14307;51.718;8.938;2024-03-23T07:38:46;36.67;;;10.90;;
26690;SDS011;14307;51.718;8.938;2024-03-23T07:41:16;34.95;;;11.38;;
26690;SDS011;14307;51.718;8.938;2024-03-23T07:43:46;28.90;;;11.88;;
26690;SDS011;14307;51.718;8.938;2024-03-23T07:46:14;36.67;;;14.73;;
26690;SDS011;14307;51.718;8.938;2024-03-23T07:48:41;30.65;;;15.00;;
26690;SDS011;14307;51.718;8.938;2024-03-23T07:51:11;38.58;;;15.80;;
26690;SDS011;14307;51.718;8.938;2024-03-23T07:53:48;48.33;;;17.55;;
26690;SDS011;14307;51.718;8.938;2024-03-23T07:56:15;34.85;;;16.60;;
26690;SDS011;14307;51.718;8.938;2024-03-23T07:58:41;33.33;;;16.50;;
26690;SDS011;14307;51.718;8.938;2024-03-23T08:01:08;59.63;;;18.23;;
26690;SDS011;14307;51.718;8.938;2024-03-23T08:03:37;46.10;;;21.05;;
26690;SDS011;14307;51.718;8.938;2024-03-23T08:06:21;48.85;;;22.00;;
26690;SDS011;14307;51.718;8.938;2024-03-23T08:08:51;54.17;;;19.85;;
26690;SDS011;14307;51.718;8.938;2024-03-23T08:11:25;42.85;;;21.58;;
26690;SDS011;14307;51.718;8.938;2024-03-23T08:13:56;39.28;;;18.45;;
26690;SDS011;14307;51.718;8.938;2024-03-23T08:16:23;50.92;;;23.02;;
26690;SDS011;14307;51.718;8.938;2024-03-23T08:18:53;47.35;;;22.35;;
26690;SDS011;14307;51.718;8.938;2024-03-23T08:21:21;42.97;;;20.17;;
26690;SDS011;14307;51.718;8.938;2024-03-23T08:23:47;60.88;;;23.90;;
26690;SDS011;14307;51.718;8.938;2024-03-23T08:26:15;47.40;;;21.95;;
26690;SDS011;14307;51.718;8.938;2024-03-23T08:28:43;52.17;;;23.75;;
26690;SDS011;14307;51.718;8.938;2024-03-23T08:31:10;53.33;;;25.23;;
26690;SDS011;14307;51.718;8.938;2024-03-23T08:33:37;55.08;;;26.17;;
26690;SDS011;14307;51.718;8.938;2024-03-23T08:36:05;51.30;;;24.92;;
26690;SDS011;14307;51.718;8.938;2024-03-23T08:38:32;57.00;;;25.35;;
26690;SDS011;14307;51.718;8.938;2024-03-23T08:43:26;58.63;;;28.52;;
26690;SDS011;14307;51.718;8.938;2024-03-23T08:45:53;49.47;;;26.38;;
26690;SDS011;14307;51.718;8.938;2024-03-23T08:48:19;47.60;;;26.23;;
26690;SDS011;14307;51.718;8.938;2024-03-23T08:50:59;57.00;;;27.38;;
26690;SDS011;14307;51.718;8.938;2024-03-23T08:53:34;47.28;;;29.30;;
26690;SDS011;14307;51.718;8.938;2024-03-23T08:56:02;53.33;;;29.17;;
26690;SDS011;14307;51.718;8.938;2024-03-23T08:58:29;43.72;;;26.10;;
26690;SDS011;14307;51.718;8.938;2024-03-23T09:01:02;54.67;;;27.55;;
26690;SDS011;14307;51.718;8.938;2024-03-23T09:03:30;49.75;;;27.20;;
26690;SDS011;14307;51.718;8.938;2024-03-23T09:05:57;40.65;;;27.52;;
26690;SDS011;14307;51.718;8.938;2024-03-23T09:08:24;49.90;;;28.17;;
26690;SDS011;14307;51.718;8.938;2024-03-23T09:10:51;45.03;;;27.40;;
26690;SDS011;14307;51.718;8.938;2024-03-23T09:13:18;39.88;;;29.15;;
26690;SDS011;14307;51.718;8.938;2024-03-23T09:15:51;38.95;;;27.83;;
26690;SDS011;14307;51.718;8.938;2024-03-23T09:18:17;56.08;;;28.60;;
26690;SDS011;14307;51.718;8.938;2024-03-23T09:20:43;57.97;;;28.83;;
26690;SDS011;14307;51.718;8.938;2024-03-23T09:23:09;48.70;;;30.27;;
26690;SDS011;14307;51.718;8.938;2024-03-23T09:25:36;61.15;;;29.92;;
26690;SDS011;14307;51.718;8.938;2024-03-23T09:28:04;53.05;;;32.10;;
26690;SDS011;14307;51.718;8.938;2024-03-23T09:30:31;47.25;;;30.23;;
26690;SDS011;14307;51.718;8.938;2024-03-23T09:32:59;42.20;;;29.17;;
26690;SDS011;14307;51.718;8.938;2024-03-23T09:35:26;40.33;;;31.00;;
26690;SDS011;14307;51.718;8.938;2024-03-23T09:37:52;33.83;;;29.92;;
26690;SDS011;14307;51.718;8.938;2024-03-23T09:40:19;39.00;;;33.38;;
26690;SDS011;14307;51.718;8.938;2024-03-23T09:42:50;31.77;;;28.55;;
26690;SDS011;14307;51.718;8.938;2024-03-23T09:45:17;41.10;;;30.77;;
26690;SDS011;14307;51.718;8.938;2024-03-23T09:47:47;31.95;;;28.48;;
26690;SDS011;14307;51.718;8.938;2024-03-23T09:50:13;33.60;;;30.02;;
26690;SDS011;14307;51.718;8.938;2024-03-23T09:52:40;35.97;;;29.27;;
26690;SDS011;14307;51.718;8.938;2024-03-23T09:55:09;33.30;;;29.25;;
26690;SDS011;14307;51.718;8.938;2024-03-23T09:57:35;35.72;;;30.13;;
26690;SDS011;14307;51.718;8.938;2024-03-23T10:00:01;36.75;;;31.13;;
26690;SDS011;14307;51.718;8.938;2024-03-23T10:02:32;32.08;;;28.95;;
26690;SDS011;14307;51.718;8.938;2024-03-23T10:04:59;31.40;;;28.17;;
26690;SDS011;14307;51.718;8.938;2024-03-23T10:07:27;30.58;;;27.30;;
26690;SDS011;14307;51.718;8.938;2024-03-23T10:09:56;33.47;;;29.33;;
26690;SDS011;14307;51.718;8.938;2024-03-23T10:12:23;48.13;;;32.78;;
26690;SDS011;14307;51.718;8.938;2024-03-23T10:14:49;40.97;;;30.48;;
26690;SDS011;14307;51.718;8.938;2024-03-23T10:17:16;41.58;;;32.72;;
26690;SDS011;14307;51.718;8.938;2024-03-23T10:19:49;34.55;;;29.27;;
26690;SDS011;14307;51.718;8.938;2024-03-23T10:22:20;42.83;;;33.22;;
26690;SDS011;14307;51.718;8.938;2024-03-23T10:24:48;35.58;;;32.13;;
26690;SDS011;14307;51.718;8.938;2024-03-23T10:27:18;37.40;;;34.03;;
26690;SDS011;14307;51.718;8.938;2024-03-23T10:29:46;38.83;;;34.97;;
26690;SDS011;14307;51.718;8.938;2024-03-23T10:32:13;37.88;;;31.88;;
26690;SDS011;14307;51.718;8.938;2024-03-23T10:34:41;34.45;;;30.33;;
26690;SDS011;14307;51.718;8.938;2024-03-23T10:37:07;35.00;;;31.80;;
26690;SDS011;14307;51.718;8.938;2024-03-23T10:39:35;39.13;;;35.25;;
26690;SDS011;14307;51.718;8.938;2024-03-23T10:42:08;32.22;;;29.83;;
26690;SDS011;14307;51.718;8.938;2024-03-23T10:44:36;32.90;;;29.80;;
26690;SDS011;14307;51.718;8.938;2024-03-23T10:47:02;32.63;;;29.63;;
26690;SDS011;14307;51.718;8.938;2024-03-23T10:49:29;33.08;;;29.70;;
26690;SDS011;14307;51.718;8.938;2024-03-23T10:52:00;30.13;;;27.55;;
26690;SDS011;14307;51.718;8.938;2024-03-23T10:54:30;38.83;;;34.88;;
26690;SDS011;14307;51.718;8.938;2024-03-23T10:59:45;32.08;;;29.35;;
26690;SDS011;14307;51.718;8.938;2024-03-23T11:02:19;32.22;;;29.10;;
26690;SDS011;14307;51.718;8.938;2024-03-23T11:04:45;28.65;;;26.40;;
26690;SDS011;14307;51.718;8.938;2024-03-23T11:09:55;12.38;;;11.15;;
26690;SDS011;14307;51.718;8.938;2024-03-23T11:14:52;11.05;;;9.40;;
26690;SDS011;14307;51.718;8.938;2024-03-23T11:18:01;8.82;;;8.30;;
26690;SDS011;14307;51.718;8.938;2024-03-23T11:20:34;13.98;;;9.32;;
26690;SDS011;14307;51.718;8.938;2024-03-23T11:23:01;12.25;;;11.20;;
26690;SDS011;14307;51.718;8.938;2024-03-23T11:25:28;15.68;;;14.23;;
26690;SDS011;14307;51.718;8.938;2024-03-23T11:27:55;13.32;;;12.52;;
26690;SDS011;14307;51.718;8.938;2024-03-23T11:30:35;13.73;;;12.88;;
26690;SDS011;14307;51.718;8.938;2024-03-23T11:33:03;13.52;;;12.63;;
26690;SDS011;14307;51.718;8.938;2024-03-23T11:35:34;19.50;;;17.88;;
26690;SDS011;14307;51.718;8.938;2024-03-23T11:38:15;19.38;;;18.15;;
26690;SDS011;14307;51.718;8.938;2024-03-23T11:40:48;19.13;;;17.90;;
26690;SDS011;14307;51.718;8.938;2024-03-23T11:43:16;17.88;;;16.40;;
26690;SDS011;14307;51.718;8.938;2024-03-23T11:45:47;15.40;;;14.30;;
26690;SDS011;14307;51.718;8.938;2024-03-23T11:48:19;14.73;;;13.75;;
26690;SDS011;14307;51.718;8.938;2024-03-23T11:50:47;17.85;;;16.55;;
26690;SDS011;14307;51.718;8.938;2024-03-23T11:53:15;18.33;;;17.05;;
26690;SDS011;14307;51.718;8.938;2024-03-23T11:55:43;16.45;;;15.43;;
26690;SDS011;14307;51.718;8.938;2024-03-23T11:58:17;15.77;;;14.68;;
26690;SDS011;14307;51.718;8.938;2024-03-23T12:00:52;19.00;;;17.67;;
26690;SDS011;14307;51.718;8.938;2024-03-23T12:03:18;17.23;;;16.13;;
26690;SDS011;14307;51.718;8.938;2024-03-23T12:05:48;20.08;;;18.58;;
26690;SDS011;14307;51.718;8.938;2024-03-23T12:08:16;19.50;;;17.75;;
26690;SDS011;14307;51.718;8.938;2024-03-23T12:10:48;23.58;;;21.50;;
26690;SDS011;14307;51.718;8.938;2024-03-23T12:13:18;23.02;;;21.20;;
26690;SDS011;14307;51.718;8.938;2024-03-23T12:15:46;23.55;;;21.65;;
26690;SDS011;14307;51.718;8.938;2024-03-23T12:18:14;29.05;;;26.42;;
26690;SDS011;14307;51.718;8.938;2024-03-23T12:20:41;28.25;;;25.27;;
26690;SDS011;14307;51.718;8.938;2024-03-23T12:23:08;30.65;;;28.05;;
26690;SDS011;14307;51.718;8.938;2024-03-23T12:25:40;30.52;;;27.95;;
26690;SDS011;14307;51.718;8.938;2024-03-23T12:28:07;32.35;;;29.55;;
26690;SDS011;14307;51.718;8.938;2024-03-23T12:30:33;29.42;;;26.88;;
26690;SDS011;14307;51.718;8.938;2024-03-23T12:33:01;29.70;;;26.55;;
26690;SDS011;14307;51.718;8.938;2024-03-23T12:35:27;27.27;;;23.88;;
26690;SDS011;14307;51.718;8.938;2024-03-23T12:37:53;25.55;;;23.42;;
26690;SDS011;14307;51.718;8.938;2024-03-23T12:40:19;27.30;;;24.58;;
26690;SDS011;14307;51.718;8.938;2024-03-23T12:42:45;27.70;;;25.35;;
26690;SDS011;14307;51.718;8.938;2024-03-23T12:45:11;27.50;;;25.15;;
26690;SDS011;14307;51.718;8.938;2024-03-23T12:47:37;28.40;;;25.55;;
26690;SDS011;14307;51.718;8.938;2024-03-23T12:50:03;30.02;;;27.17;;
26690;SDS011;14307;51.718;8.938;2024-03-23T12:52:31;27.42;;;23.90;;
26690;SDS011;14307;51.718;8.938;2024-03-23T12:54:58;28.50;;;25.90;;
26690;SDS011;14307;51.718;8.938;2024-03-23T12:57:25;25.02;;;22.60;;
26690;SDS011;14307;51.718;8.938;2024-03-23T12:59:52;27.00;;;24.30;;
26690;SDS011;14307;51.718;8.938;2024-03-23T13:02:22;24.63;;;22.67;;
26690;SDS011;14307;51.718;8.938;2024-03-23T13:04:52;21.98;;;19.98;;
26690;SDS011;14307;51.718;8.938;2024-03-23T13:07:19;18.73;;;17.17;;
26690;SDS011;14307;51.718;8.938;2024-03-23T13:09:46;15.32;;;14.23;;
26690;SDS011;14307;51.718;8.938;2024-03-23T13:12:15;13.70;;;12.48;;
26690;SDS011;14307;51.718;8.938;2024-03-23T13:14:41;14.63;;;13.15;;
26690;SDS011;14307;51.718;8.938;2024-03-23T13:17:07;15.23;;;13.90;;
26690;SDS011;14307;51.718;8.938;2024-03-23T13:19:34;15.25;;;14.10;;
26690;SDS011;14307;51.718;8.938;2024-03-23T13:22:00;13.60;;;12.48;;
26690;SDS011;14307;51.718;8.938;2024-03-23T13:24:30;14.95;;;13.63;;
26690;SDS011;14307;51.718;8.938;2024-03-23T13:26:56;14.07;;;12.93;;
26690;SDS011;14307;51.718;8.938;2024-03-23T13:29:23;13.52;;;12.25;;
26690;SDS011;14307;51.718;8.938;2024-03-23T13:31:49;13.88;;;12.57;;
26690;SDS011;14307;51.718;8.938;2024-03-23T13:34:17;16.52;;;14.80;;
26690;SDS011;14307;51.718;8.938;2024-03-23T13:36:44;17.25;;;15.57;;
26690;SDS011;14307;51.718;8.938;2024-03-23T13:39:11;16.88;;;15.88;;
26690;SDS011;14307;51.718;8.938;2024-03-23T13:44:07;22.13;;;20.08;;
26690;SDS011;14307;51.718;8.938;2024-03-23T13:46:37;21.33;;;19.50;;
26690;SDS011;14307;51.718;8.938;2024-03-23T13:49:05;22.73;;;21.17;;
26690;SDS011;14307;51.718;8.938;2024-03-23T13:51:32;22.45;;;20.98;;
26690;SDS011;14307;51.718;8.938;2024-03-23T13:53:58;24.40;;;22.92;;
26690;SDS011;14307;51.718;8.938;2024-03-23T13:56:27;25.23;;;23.42;;
26690;SDS011;14307;51.718;8.938;2024-03-23T13:58:57;25.77;;;24.08;;
26690;SDS011;14307;51.718;8.938;2024-03-23T14:01:23;26.25;;;24.38;;
26690;SDS011;14307;51.718;8.938;2024-03-23T14:03:50;26.15;;;24.13;;
26690;SDS011;14307;51.718;8.938;2024-03-23T14:06:16;27.02;;;25.30;;
26690;SDS011;14307;51.718;8.938;2024-03-23T14:08:42;28.50;;;26.60;;
26690;SDS011;14307;51.718;8.938;2024-03-23T14:11:09;27.33;;;25.73;;
26690;SDS011;14307;51.718;8.938;2024-03-23T14:13:36;27.38;;;25.65;;
26690;SDS011;14307;51.718;8.938;2024-03-23T14:16:03;32.45;;;30.00;;
26690;SDS011;14307;51.718;8.938;2024-03-23T14:18:29;31.33;;;28.95;;
26690;SDS011;14307;51.718;8.938;2024-03-23T14:20:59;31.10;;;28.88;;
26690;SDS011;14307;51.718;8.938;2024-03-23T14:23:27;30.83;;;28.92;;
26690;SDS011;14307;51.718;8.938;2024-03-23T14:26:00;29.90;;;27.90;;
26690;SDS011;14307;51.718;8.938;2024-03-23T14:28:26;29.73;;;27.63;;
26690;SDS011;14307;51.718;8.938;2024-03-23T14:30:55;30.15;;;28.00;;
26690;SDS011;14307;51.718;8.938;2024-03-23T14:33:21;28.48;;;26.63;;
26690;SDS011;14307;51.718;8.938;2024-03-23T14:35:57;31.05;;;28.88;;
26690;SDS011;14307;51.718;8.938;2024-03-23T14:38:23;28.85;;;27.00;;
26690;SDS011;14307;51.718;8.938;2024-03-23T14:40:49;24.33;;;22.92;;
26690;SDS011;14307;51.718;8.938;2024-03-23T14:43:18;23.92;;;22.42;;
26690;SDS011;14307;51.718;8.938;2024-03-23T14:46:27;22.13;;;20.60;;
26690;SDS011;14307;51.718;8.938;2024-03-23T14:48:34;21.10;;;19.65;;
26690;SDS011;14307;51.718;8.938;2024-03-23T14:51:01;24.55;;;22.75;;
26690;SDS011;14307;51.718;8.938;2024-03-23T14:53:32;23.35;;;21.63;;
26690;SDS011;14307;51.718;8.938;2024-03-23T14:56:02;25.05;;;23.50;;
26690;SDS011;14307;51.718;8.938;2024-03-23T14:58:28;27.77;;;25.85;;
26690;SDS011;14307;51.718;8.938;2024-03-23T15:01:02;25.83;;;24.33;;
26690;SDS011;14307;51.718;8.938;2024-03-23T15:03:38;30.90;;;28.45;;
26690;SDS011;14307;51.718;8.938;2024-03-23T15:06:06;30.13;;;28.38;;
26690;SDS011;14307;51.718;8.938;2024-03-23T15:08:34;30.65;;;28.85;;
26690;SDS011;14307;51.718;8.938;2024-03-23T15:11:02;30.83;;;29.05;;
26690;SDS011;14307;51.718;8.938;2024-03-23T15:13:34;31.65;;;29.63;;
26690;SDS011;14307;51.718;8.938;2024-03-23T15:16:04;29.60;;;27.75;;
26690;SDS011;14307;51.718;8.938;2024-03-23T15:18:34;30.85;;;28.48;;
26690;SDS011;14307;51.718;8.938;2024-03-23T15:21:02;29.02;;;27.33;;
26690;SDS011;14307;51.718;8.938;2024-03-23T15:23:31;30.70;;;28.63;;
26690;SDS011;14307;51.718;8.938;2024-03-23T15:25:58;34.05;;;31.73;;
26690;SDS011;14307;51.718;8.938;2024-03-23T15:28:26;32.33;;;29.83;;
26690;SDS011;14307;51.718;8.938;2024-03-23T15:31:04;24.67;;;23.10;;
26690;SDS011;14307;51.718;8.938;2024-03-23T15:33:30;21.58;;;20.08;;
26690;SDS011;14307;51.718;8.938;2024-03-23T15:35:59;19.23;;;17.65;;
26690;SDS011;14307;51.718;8.938;2024-03-23T15:38:26;21.05;;;19.20;;